sensor_id;sensor_type;location;lat;lon;timestamp;P1;durP1;ratioP1;P2;durP2;ratioP2
11699;SDS011;5906;51.660;6.674;2022-12-18T00:02:11;61.28;;;23.75;;
11699;SDS011;5906;51.660;6.674;2022-12-18T00:04:58;53.70;;;25.70;;
11699;SDS011;5906;51.660;6.674;2022-12-18T00:07:45;44.78;;;23.05;;
11699;SDS011;5906;51.660;6.674;2022-12-18T00:10:33;43.20;;;22.30;;
11699;SDS011;5906;51.660;6.674;2022-12-18T00:13:20;40.28;;;21.05;;
11699;SDS011;5906;51.660;6.674;2022-12-18T00:16:08;39.10;;;19.65;;
11699;SDS011;5906;51.660;6.674;2022-12-18T00:18:58;46.75;;;20.17;;
11699;SDS011;5906;51.660;6.674;2022-12-18T00:21:46;41.22;;;21.13;;
11699;SDS011;5906;51.660;6.674;2022-12-18T00:24:33;37.20;;;20.85;;
11699;SDS011;5906;51.660;6.674;2022-12-18T00:27:21;52.15;;;21.65;;
11699;SDS011;5906;51.660;6.674;2022-12-18T00:30:08;46.20;;;21.67;;
11699;SDS011;5906;51.660;6.674;2022-12-18T00:32:57;51.70;;;21.50;;
11699;SDS011;5906;51.660;6.674;2022-12-18T00:35:44;51.25;;;24.20;;
11699;SDS011;5906;51.660;6.674;2022-12-18T00:38:32;55.90;;;25.17;;
11699;SDS011;5906;51.660;6.674;2022-12-18T00:41:21;45.45;;;22.67;;
11699;SDS011;5906;51.660;6.674;2022-12-18T00:44:27;53.65;;;24.45;;
11699;SDS011;5906;51.660;6.674;2022-12-18T00:47:15;48.65;;;23.00;;
11699;SDS011;5906;51.660;6.674;2022-12-18T00:50:02;45.47;;;21.70;;
11699;SDS011;5906;51.660;6.674;2022-12-18T00:52:50;51.60;;;22.63;;
11699;SDS011;5906;51.660;6.674;2022-12-18T00:55:38;43.95;;;21.20;;
11699;SDS011;5906;51.660;6.674;2022-12-18T00:58:26;47.30;;;22.58;;
11699;SDS011;5906;51.660;6.674;2022-12-18T01:01:13;42.42;;;21.55;;
11699;SDS011;5906;51.660;6.674;2022-12-18T01:04:02;41.80;;;22.25;;
11699;SDS011;5906;51.660;6.674;2022-12-18T01:06:50;39.28;;;23.50;;
11699;SDS011;5906;51.660;6.674;2022-12-18T01:09:37;43.67;;;20.65;;
11699;SDS011;5906;51.660;6.674;2022-12-18T01:12:25;40.38;;;20.15;;
11699;SDS011;5906;51.660;6.674;2022-12-18T01:15:12;34.55;;;19.55;;
11699;SDS011;5906;51.660;6.674;2022-12-18T01:18:01;48.72;;;22.60;;
11699;SDS011;5906;51.660;6.674;2022-12-18T01:20:48;44.05;;;21.70;;
11699;SDS011;5906;51.660;6.674;2022-12-18T01:23:36;47.38;;;21.80;;
11699;SDS011;5906;51.660;6.674;2022-12-18T01:26:25;53.85;;;20.65;;
11699;SDS011;5906;51.660;6.674;2022-12-18T01:29:14;48.20;;;22.17;;
11699;SDS011;5906;51.660;6.674;2022-12-18T01:32:01;47.42;;;19.77;;
11699;SDS011;5906;51.660;6.674;2022-12-18T01:34:48;43.90;;;20.70;;
11699;SDS011;5906;51.660;6.674;2022-12-18T01:37:35;41.58;;;20.02;;
11699;SDS011;5906;51.660;6.674;2022-12-18T01:40:23;55.33;;;23.85;;
11699;SDS011;5906;51.660;6.674;2022-12-18T01:43:10;38.53;;;21.27;;
11699;SDS011;5906;51.660;6.674;2022-12-18T01:45:59;43.78;;;22.35;;
11699;SDS011;5906;51.660;6.674;2022-12-18T01:48:47;36.83;;;20.42;;
11699;SDS011;5906;51.660;6.674;2022-12-18T01:51:36;38.72;;;20.33;;
11699;SDS011;5906;51.660;6.674;2022-12-18T01:54:23;47.05;;;22.02;;
11699;SDS011;5906;51.660;6.674;2022-12-18T01:57:11;41.92;;;21.42;;
11699;SDS011;5906;51.660;6.674;2022-12-18T02:00:03;42.08;;;20.23;;
11699;SDS011;5906;51.660;6.674;2022-12-18T02:02:53;48.75;;;22.00;;
11699;SDS011;5906;51.660;6.674;2022-12-18T02:12:05;37.83;;;18.90;;
11699;SDS011;5906;51.660;6.674;2022-12-18T02:15:13;48.63;;;20.20;;
11699;SDS011;5906;51.660;6.674;2022-12-18T02:18:10;46.85;;;21.90;;
11699;SDS011;5906;51.660;6.674;2022-12-18T02:27:24;49.83;;;20.63;;
11699;SDS011;5906;51.660;6.674;2022-12-18T02:30:14;40.40;;;21.02;;
11699;SDS011;5906;51.660;6.674;2022-12-18T02:33:04;39.15;;;20.80;;
11699;SDS011;5906;51.660;6.674;2022-12-18T02:35:53;39.88;;;20.20;;
11699;SDS011;5906;51.660;6.674;2022-12-18T02:38:42;46.45;;;21.83;;
11699;SDS011;5906;51.660;6.674;2022-12-18T02:41:32;45.25;;;22.35;;
11699;SDS011;5906;51.660;6.674;2022-12-18T02:44:20;41.45;;;21.40;;
11699;SDS011;5906;51.660;6.674;2022-12-18T02:47:08;45.08;;;21.40;;
11699;SDS011;5906;51.660;6.674;2022-12-18T02:55:40;48.17;;;22.00;;
11699;SDS011;5906;51.660;6.674;2022-12-18T03:07:49;58.92;;;23.30;;
11699;SDS011;5906;51.660;6.674;2022-12-18T03:10:49;41.20;;;22.98;;
11699;SDS011;5906;51.660;6.674;2022-12-18T03:13:54;49.40;;;21.80;;
11699;SDS011;5906;51.660;6.674;2022-12-18T03:16:44;54.63;;;21.25;;
11699;SDS011;5906;51.660;6.674;2022-12-18T03:19:33;43.00;;;24.13;;
11699;SDS011;5906;51.660;6.674;2022-12-18T03:22:22;50.50;;;21.88;;
11699;SDS011;5906;51.660;6.674;2022-12-18T03:25:13;44.47;;;21.83;;
11699;SDS011;5906;51.660;6.674;2022-12-18T03:28:03;45.13;;;23.05;;
11699;SDS011;5906;51.660;6.674;2022-12-18T03:30:55;57.40;;;23.45;;
11699;SDS011;5906;51.660;6.674;2022-12-18T03:33:46;40.78;;;19.20;;
11699;SDS011;5906;51.660;6.674;2022-12-18T03:36:41;52.28;;;22.70;;
11699;SDS011;5906;51.660;6.674;2022-12-18T03:39:29;41.28;;;21.98;;
11699;SDS011;5906;51.660;6.674;2022-12-18T03:42:19;38.58;;;18.80;;
11699;SDS011;5906;51.660;6.674;2022-12-18T03:45:37;46.78;;;19.42;;
11699;SDS011;5906;51.660;6.674;2022-12-18T03:48:38;38.95;;;20.42;;
11699;SDS011;5906;51.660;6.674;2022-12-18T03:51:47;58.13;;;21.65;;
11699;SDS011;5906;51.660;6.674;2022-12-18T03:54:38;45.67;;;22.95;;
11699;SDS011;5906;51.660;6.674;2022-12-18T03:57:28;44.28;;;19.42;;
11699;SDS011;5906;51.660;6.674;2022-12-18T04:00:18;41.67;;;20.15;;
11699;SDS011;5906;51.660;6.674;2022-12-18T04:03:06;41.75;;;21.00;;
11699;SDS011;5906;51.660;6.674;2022-12-18T04:05:55;46.97;;;20.00;;
11699;SDS011;5906;51.660;6.674;2022-12-18T04:08:45;46.97;;;22.10;;
11699;SDS011;5906;51.660;6.674;2022-12-18T04:11:34;49.67;;;21.40;;
11699;SDS011;5906;51.660;6.674;2022-12-18T04:14:21;43.95;;;21.48;;
11699;SDS011;5906;51.660;6.674;2022-12-18T04:17:09;41.67;;;22.30;;
11699;SDS011;5906;51.660;6.674;2022-12-18T04:19:56;45.40;;;21.60;;
11699;SDS011;5906;51.660;6.674;2022-12-18T04:22:43;44.28;;;19.90;;
11699;SDS011;5906;51.660;6.674;2022-12-18T04:25:31;48.83;;;21.90;;
11699;SDS011;5906;51.660;6.674;2022-12-18T04:28:19;40.08;;;19.55;;
11699;SDS011;5906;51.660;6.674;2022-12-18T04:31:07;39.20;;;19.35;;
11699;SDS011;5906;51.660;6.674;2022-12-18T04:33:54;64.97;;;21.88;;
11699;SDS011;5906;51.660;6.674;2022-12-18T04:36:41;36.65;;;19.35;;
11699;SDS011;5906;51.660;6.674;2022-12-18T04:39:28;51.58;;;20.40;;
11699;SDS011;5906;51.660;6.674;2022-12-18T04:42:16;42.47;;;20.83;;
11699;SDS011;5906;51.660;6.674;2022-12-18T04:45:03;40.42;;;20.73;;
11699;SDS011;5906;51.660;6.674;2022-12-18T04:47:51;44.38;;;21.30;;
11699;SDS011;5906;51.660;6.674;2022-12-18T04:50:39;41.53;;;20.23;;
11699;SDS011;5906;51.660;6.674;2022-12-18T04:53:26;27.63;;;17.60;;
11699;SDS011;5906;51.660;6.674;2022-12-18T04:56:14;47.95;;;22.92;;
11699;SDS011;5906;51.660;6.674;2022-12-18T04:59:02;38.92;;;19.02;;
11699;SDS011;5906;51.660;6.674;2022-12-18T05:01:49;58.45;;;19.77;;
11699;SDS011;5906;51.660;6.674;2022-12-18T05:04:36;36.40;;;19.67;;
11699;SDS011;5906;51.660;6.674;2022-12-18T05:07:24;38.13;;;18.15;;
11699;SDS011;5906;51.660;6.674;2022-12-18T05:10:11;36.50;;;19.25;;
11699;SDS011;5906;51.660;6.674;2022-12-18T05:12:58;43.40;;;19.52;;
11699;SDS011;5906;51.660;6.674;2022-12-18T05:15:51;50.90;;;21.45;;
11699;SDS011;5906;51.660;6.674;2022-12-18T05:18:39;35.92;;;20.83;;
11699;SDS011;5906;51.660;6.674;2022-12-18T05:21:26;38.40;;;19.50;;
11699;SDS011;5906;51.660;6.674;2022-12-18T05:24:13;47.78;;;23.63;;
11699;SDS011;5906;51.660;6.674;2022-12-18T05:27:01;41.08;;;19.42;;
11699;SDS011;5906;51.660;6.674;2022-12-18T05:29:48;38.22;;;21.05;;
11699;SDS011;5906;51.660;6.674;2022-12-18T05:32:36;43.35;;;19.25;;
11699;SDS011;5906;51.660;6.674;2022-12-18T05:35:23;47.58;;;21.77;;
11699;SDS011;5906;51.660;6.674;2022-12-18T05:38:10;36.60;;;20.48;;
11699;SDS011;5906;51.660;6.674;2022-12-18T05:40:57;41.97;;;21.60;;
11699;SDS011;5906;51.660;6.674;2022-12-18T05:43:45;39.55;;;19.58;;
11699;SDS011;5906;51.660;6.674;2022-12-18T05:46:32;38.78;;;21.52;;
11699;SDS011;5906;51.660;6.674;2022-12-18T05:49:20;42.92;;;20.00;;
11699;SDS011;5906;51.660;6.674;2022-12-18T05:52:07;32.97;;;18.10;;
11699;SDS011;5906;51.660;6.674;2022-12-18T05:54:55;40.90;;;21.08;;
11699;SDS011;5906;51.660;6.674;2022-12-18T05:57:42;33.97;;;20.63;;
11699;SDS011;5906;51.660;6.674;2022-12-18T06:00:30;41.42;;;20.70;;
11699;SDS011;5906;51.660;6.674;2022-12-18T06:03:19;28.25;;;17.95;;
11699;SDS011;5906;51.660;6.674;2022-12-18T06:06:40;34.65;;;19.50;;
11699;SDS011;5906;51.660;6.674;2022-12-18T06:09:20;35.50;;;17.92;;
11699;SDS011;5906;51.660;6.674;2022-12-18T06:12:07;35.70;;;18.42;;
11699;SDS011;5906;51.660;6.674;2022-12-18T06:14:55;36.90;;;19.05;;
11699;SDS011;5906;51.660;6.674;2022-12-18T06:17:42;26.73;;;16.25;;
11699;SDS011;5906;51.660;6.674;2022-12-18T06:20:30;34.83;;;20.75;;
11699;SDS011;5906;51.660;6.674;2022-12-18T06:23:19;45.85;;;19.08;;
11699;SDS011;5906;51.660;6.674;2022-12-18T06:26:07;38.95;;;20.83;;
11699;SDS011;5906;51.660;6.674;2022-12-18T06:28:56;32.45;;;17.98;;
11699;SDS011;5906;51.660;6.674;2022-12-18T06:31:44;36.90;;;20.17;;
11699;SDS011;5906;51.660;6.674;2022-12-18T06:34:31;40.95;;;19.02;;
11699;SDS011;5906;51.660;6.674;2022-12-18T06:37:19;34.17;;;19.48;;
11699;SDS011;5906;51.660;6.674;2022-12-18T06:40:06;30.35;;;17.05;;
11699;SDS011;5906;51.660;6.674;2022-12-18T06:42:54;34.50;;;18.80;;
11699;SDS011;5906;51.660;6.674;2022-12-18T06:45:42;30.20;;;17.23;;
11699;SDS011;5906;51.660;6.674;2022-12-18T06:48:29;35.78;;;21.30;;
11699;SDS011;5906;51.660;6.674;2022-12-18T06:51:18;31.95;;;20.40;;
11699;SDS011;5906;51.660;6.674;2022-12-18T06:54:06;38.25;;;17.92;;
11699;SDS011;5906;51.660;6.674;2022-12-18T06:56:56;35.90;;;18.80;;
11699;SDS011;5906;51.660;6.674;2022-12-18T06:59:43;25.25;;;16.80;;
11699;SDS011;5906;51.660;6.674;2022-12-18T07:02:31;24.15;;;16.55;;
11699;SDS011;5906;51.660;6.674;2022-12-18T07:05:18;30.23;;;17.77;;
11699;SDS011;5906;51.660;6.674;2022-12-18T07:08:06;41.67;;;17.63;;
11699;SDS011;5906;51.660;6.674;2022-12-18T07:10:53;38.72;;;18.55;;
11699;SDS011;5906;51.660;6.674;2022-12-18T07:13:42;25.73;;;16.85;;
11699;SDS011;5906;51.660;6.674;2022-12-18T07:16:29;30.88;;;15.65;;
11699;SDS011;5906;51.660;6.674;2022-12-18T07:19:17;28.25;;;16.13;;
11699;SDS011;5906;51.660;6.674;2022-12-18T07:22:04;35.83;;;18.73;;
11699;SDS011;5906;51.660;6.674;2022-12-18T07:24:52;26.40;;;16.65;;
11699;SDS011;5906;51.660;6.674;2022-12-18T07:27:39;32.30;;;19.17;;
11699;SDS011;5906;51.660;6.674;2022-12-18T07:30:26;32.83;;;17.98;;
11699;SDS011;5906;51.660;6.674;2022-12-18T07:33:14;29.95;;;17.25;;
11699;SDS011;5906;51.660;6.674;2022-12-18T07:36:02;40.67;;;20.17;;
11699;SDS011;5906;51.660;6.674;2022-12-18T07:38:50;33.22;;;17.75;;
11699;SDS011;5906;51.660;6.674;2022-12-18T07:41:39;32.97;;;19.75;;
11699;SDS011;5906;51.660;6.674;2022-12-18T07:44:33;30.63;;;17.35;;
11699;SDS011;5906;51.660;6.674;2022-12-18T07:47:20;29.85;;;16.98;;
11699;SDS011;5906;51.660;6.674;2022-12-18T07:50:07;30.27;;;16.25;;
11699;SDS011;5906;51.660;6.674;2022-12-18T07:52:55;31.65;;;19.27;;
11699;SDS011;5906;51.660;6.674;2022-12-18T07:55:42;37.90;;;19.27;;
11699;SDS011;5906;51.660;6.674;2022-12-18T07:58:49;34.00;;;18.48;;
11699;SDS011;5906;51.660;6.674;2022-12-18T08:01:37;39.70;;;21.52;;
11699;SDS011;5906;51.660;6.674;2022-12-18T08:04:24;26.92;;;16.73;;
11699;SDS011;5906;51.660;6.674;2022-12-18T08:07:12;33.17;;;15.80;;
11699;SDS011;5906;51.660;6.674;2022-12-18T08:09:59;31.58;;;17.15;;
11699;SDS011;5906;51.660;6.674;2022-12-18T08:12:50;32.70;;;17.02;;
11699;SDS011;5906;51.660;6.674;2022-12-18T08:15:38;33.35;;;17.30;;
11699;SDS011;5906;51.660;6.674;2022-12-18T08:18:25;32.88;;;17.50;;
11699;SDS011;5906;51.660;6.674;2022-12-18T08:24:01;33.17;;;18.05;;
11699;SDS011;5906;51.660;6.674;2022-12-18T08:26:49;28.30;;;17.02;;
11699;SDS011;5906;51.660;6.674;2022-12-18T08:29:57;30.73;;;16.30;;
11699;SDS011;5906;51.660;6.674;2022-12-18T08:32:44;49.95;;;21.63;;
11699;SDS011;5906;51.660;6.674;2022-12-18T08:35:34;35.85;;;18.80;;
11699;SDS011;5906;51.660;6.674;2022-12-18T08:38:31;34.08;;;17.15;;
11699;SDS011;5906;51.660;6.674;2022-12-18T08:41:19;31.27;;;16.17;;
11699;SDS011;5906;51.660;6.674;2022-12-18T08:44:07;33.85;;;16.13;;
11699;SDS011;5906;51.660;6.674;2022-12-18T08:47:13;28.58;;;17.15;;
11699;SDS011;5906;51.660;6.674;2022-12-18T08:50:00;28.95;;;17.70;;
11699;SDS011;5906;51.660;6.674;2022-12-18T08:52:47;30.30;;;16.27;;
11699;SDS011;5906;51.660;6.674;2022-12-18T08:55:34;30.58;;;18.50;;
11699;SDS011;5906;51.660;6.674;2022-12-18T08:58:21;32.90;;;17.95;;
11699;SDS011;5906;51.660;6.674;2022-12-18T09:01:10;29.70;;;16.00;;
11699;SDS011;5906;51.660;6.674;2022-12-18T09:03:59;37.58;;;19.27;;
11699;SDS011;5906;51.660;6.674;2022-12-18T09:06:46;32.63;;;17.42;;
11699;SDS011;5906;51.660;6.674;2022-12-18T09:09:33;27.52;;;17.10;;
11699;SDS011;5906;51.660;6.674;2022-12-18T09:12:20;34.75;;;16.45;;
11699;SDS011;5906;51.660;6.674;2022-12-18T09:15:08;34.28;;;16.83;;
11699;SDS011;5906;51.660;6.674;2022-12-18T09:17:55;31.73;;;16.30;;
11699;SDS011;5906;51.660;6.674;2022-12-18T09:20:42;26.13;;;15.82;;
11699;SDS011;5906;51.660;6.674;2022-12-18T09:23:30;29.50;;;15.30;;
11699;SDS011;5906;51.660;6.674;2022-12-18T09:26:21;32.22;;;17.27;;
11699;SDS011;5906;51.660;6.674;2022-12-18T09:29:09;32.30;;;16.13;;
11699;SDS011;5906;51.660;6.674;2022-12-18T09:31:56;31.00;;;18.42;;
11699;SDS011;5906;51.660;6.674;2022-12-18T09:34:44;30.40;;;17.10;;
11699;SDS011;5906;51.660;6.674;2022-12-18T09:37:31;26.40;;;16.50;;
11699;SDS011;5906;51.660;6.674;2022-12-18T09:40:23;33.78;;;17.60;;
11699;SDS011;5906;51.660;6.674;2022-12-18T09:43:14;31.60;;;16.92;;
11699;SDS011;5906;51.660;6.674;2022-12-18T09:46:11;43.73;;;21.63;;
11699;SDS011;5906;51.660;6.674;2022-12-18T09:49:07;50.40;;;23.00;;
11699;SDS011;5906;51.660;6.674;2022-12-18T10:01:31;30.20;;;16.70;;
11699;SDS011;5906;51.660;6.674;2022-12-18T10:04:29;26.07;;;16.00;;
11699;SDS011;5906;51.660;6.674;2022-12-18T10:07:20;35.13;;;19.70;;
11699;SDS011;5906;51.660;6.674;2022-12-18T10:10:38;33.77;;;20.73;;
11699;SDS011;5906;51.660;6.674;2022-12-18T10:13:31;35.73;;;18.60;;
11699;SDS011;5906;51.660;6.674;2022-12-18T10:25:50;27.33;;;16.57;;
11699;SDS011;5906;51.660;6.674;2022-12-18T10:28:51;28.90;;;17.97;;
11699;SDS011;5906;51.660;6.674;2022-12-18T10:31:39;30.13;;;17.00;;
11699;SDS011;5906;51.660;6.674;2022-12-18T10:34:26;29.97;;;15.93;;
11699;SDS011;5906;51.660;6.674;2022-12-18T10:37:17;26.30;;;15.10;;
11699;SDS011;5906;51.660;6.674;2022-12-18T10:40:15;31.30;;;16.23;;
11699;SDS011;5906;51.660;6.674;2022-12-18T10:43:12;26.73;;;17.07;;
11699;SDS011;5906;51.660;6.674;2022-12-18T10:48:58;33.60;;;16.77;;
11699;SDS011;5906;51.660;6.674;2022-12-18T10:51:45;33.30;;;18.07;;
11699;SDS011;5906;51.660;6.674;2022-12-18T10:54:33;39.03;;;21.50;;
11699;SDS011;5906;51.660;6.674;2022-12-18T11:00:27;33.27;;;17.67;;
11699;SDS011;5906;51.660;6.674;2022-12-18T11:06:25;27.03;;;17.10;;
11699;SDS011;5906;51.660;6.674;2022-12-18T11:09:19;27.90;;;17.60;;
11699;SDS011;5906;51.660;6.674;2022-12-18T11:13:18;31.50;;;18.70;;
11699;SDS011;5906;51.660;6.674;2022-12-18T11:15:47;33.20;;;18.50;;
11699;SDS011;5906;51.660;6.674;2022-12-18T11:18:19;27.03;;;17.90;;
11699;SDS011;5906;51.660;6.674;2022-12-18T11:21:13;28.50;;;18.83;;
11699;SDS011;5906;51.660;6.674;2022-12-18T11:24:01;29.30;;;16.73;;
11699;SDS011;5906;51.660;6.674;2022-12-18T11:26:48;31.07;;;17.53;;
11699;SDS011;5906;51.660;6.674;2022-12-18T11:29:44;29.73;;;18.00;;
11699;SDS011;5906;51.660;6.674;2022-12-18T11:32:38;28.77;;;17.70;;
11699;SDS011;5906;51.660;6.674;2022-12-18T11:37:49;27.33;;;17.20;;
11699;SDS011;5906;51.660;6.674;2022-12-18T11:40:30;29.23;;;17.50;;
11699;SDS011;5906;51.660;6.674;2022-12-18T11:43:09;23.80;;;16.30;;
11699;SDS011;5906;51.660;6.674;2022-12-18T11:46:01;27.20;;;17.37;;
11699;SDS011;5906;51.660;6.674;2022-12-18T11:54:41;39.57;;;22.53;;
11699;SDS011;5906;51.660;6.674;2022-12-18T12:05:41;28.70;;;14.60;;
11699;SDS011;5906;51.660;6.674;2022-12-18T12:21:43;30.13;;;18.07;;
11699;SDS011;5906;51.660;6.674;2022-12-18T12:40:58;24.73;;;16.30;;
11699;SDS011;5906;51.660;6.674;2022-12-18T12:46:06;27.20;;;17.00;;
11699;SDS011;5906;51.660;6.674;2022-12-18T12:51:17;27.83;;;16.20;;
11699;SDS011;5906;51.660;6.674;2022-12-18T12:53:50;27.53;;;16.10;;
11699;SDS011;5906;51.660;6.674;2022-12-18T12:56:20;25.50;;;16.00;;
11699;SDS011;5906;51.660;6.674;2022-12-18T13:07:00;24.97;;;15.33;;
11699;SDS011;5906;51.660;6.674;2022-12-18T13:10:11;22.83;;;14.53;;
11699;SDS011;5906;51.660;6.674;2022-12-18T13:12:59;25.20;;;15.70;;
11699;SDS011;5906;51.660;6.674;2022-12-18T13:15:31;26.50;;;16.20;;
11699;SDS011;5906;51.660;6.674;2022-12-18T13:18:13;26.50;;;16.63;;
11699;SDS011;5906;51.660;6.674;2022-12-18T13:23:33;25.77;;;15.97;;
11699;SDS011;5906;51.660;6.674;2022-12-18T13:31:13;26.10;;;14.70;;
11699;SDS011;5906;51.660;6.674;2022-12-18T13:37:35;27.00;;;16.87;;
11699;SDS011;5906;51.660;6.674;2022-12-18T13:39:59;17.73;;;14.23;;
11699;SDS011;5906;51.660;6.674;2022-12-18T13:48:19;16.03;;;13.40;;
11699;SDS011;5906;51.660;6.674;2022-12-18T13:50:49;18.20;;;12.10;;
11699;SDS011;5906;51.660;6.674;2022-12-18T13:53:26;22.10;;;13.10;;
11699;SDS011;5906;51.660;6.674;2022-12-18T13:55:56;19.00;;;12.17;;
11699;SDS011;5906;51.660;6.674;2022-12-18T13:58:24;19.30;;;13.47;;
11699;SDS011;5906;51.660;6.674;2022-12-18T14:00:51;18.63;;;11.80;;
11699;SDS011;5906;51.660;6.674;2022-12-18T14:03:22;18.40;;;11.90;;
11699;SDS011;5906;51.660;6.674;2022-12-18T14:06:07;16.67;;;12.40;;
11699;SDS011;5906;51.660;6.674;2022-12-18T14:08:37;17.90;;;12.40;;
11699;SDS011;5906;51.660;6.674;2022-12-18T14:11:07;21.27;;;14.60;;
11699;SDS011;5906;51.660;6.674;2022-12-18T14:13:51;18.63;;;12.90;;
11699;SDS011;5906;51.660;6.674;2022-12-18T14:16:18;22.67;;;13.20;;
11699;SDS011;5906;51.660;6.674;2022-12-18T14:18:48;18.77;;;12.10;;
11699;SDS011;5906;51.660;6.674;2022-12-18T14:21:40;16.67;;;11.27;;
11699;SDS011;5906;51.660;6.674;2022-12-18T14:26:45;22.50;;;13.90;;
11699;SDS011;5906;51.660;6.674;2022-12-18T14:29:21;20.17;;;12.13;;
11699;SDS011;5906;51.660;6.674;2022-12-18T14:34:50;25.17;;;13.90;;
11699;SDS011;5906;51.660;6.674;2022-12-18T14:37:21;20.30;;;12.40;;
11699;SDS011;5906;51.660;6.674;2022-12-18T14:39:53;26.80;;;11.63;;
11699;SDS011;5906;51.660;6.674;2022-12-18T14:42:20;16.93;;;10.57;;
11699;SDS011;5906;51.660;6.674;2022-12-18T14:44:47;17.13;;;11.57;;
11699;SDS011;5906;51.660;6.674;2022-12-18T14:47:34;21.30;;;11.70;;
11699;SDS011;5906;51.660;6.674;2022-12-18T14:50:02;18.30;;;11.33;;
11699;SDS011;5906;51.660;6.674;2022-12-18T14:52:29;17.10;;;12.10;;
11699;SDS011;5906;51.660;6.674;2022-12-18T14:54:58;21.73;;;13.03;;
11699;SDS011;5906;51.660;6.674;2022-12-18T14:57:25;18.20;;;13.03;;
11699;SDS011;5906;51.660;6.674;2022-12-18T15:00:05;22.67;;;11.60;;
11699;SDS011;5906;51.660;6.674;2022-12-18T15:02:34;23.23;;;13.43;;
11699;SDS011;5906;51.660;6.674;2022-12-18T15:05:23;22.13;;;12.83;;
11699;SDS011;5906;51.660;6.674;2022-12-18T15:07:56;19.80;;;11.87;;
11699;SDS011;5906;51.660;6.674;2022-12-18T15:20:33;19.37;;;12.97;;
11699;SDS011;5906;51.660;6.674;2022-12-18T15:23:12;20.23;;;14.07;;
11699;SDS011;5906;51.660;6.674;2022-12-18T15:26:03;19.67;;;12.87;;
11699;SDS011;5906;51.660;6.674;2022-12-18T15:31:32;22.67;;;12.70;;
11699;SDS011;5906;51.660;6.674;2022-12-18T15:34:21;19.87;;;12.53;;
11699;SDS011;5906;51.660;6.674;2022-12-18T15:36:50;19.30;;;12.87;;
11699;SDS011;5906;51.660;6.674;2022-12-18T15:39:17;23.97;;;12.47;;
11699;SDS011;5906;51.660;6.674;2022-12-18T15:41:43;21.80;;;12.60;;
11699;SDS011;5906;51.660;6.674;2022-12-18T15:44:30;20.50;;;12.60;;
11699;SDS011;5906;51.660;6.674;2022-12-18T15:46:57;21.53;;;13.83;;
11699;SDS011;5906;51.660;6.674;2022-12-18T15:49:24;25.20;;;13.17;;
11699;SDS011;5906;51.660;6.674;2022-12-18T15:51:53;24.23;;;16.13;;
11699;SDS011;5906;51.660;6.674;2022-12-18T15:54:22;19.87;;;14.67;;
11699;SDS011;5906;51.660;6.674;2022-12-18T15:57:09;21.10;;;13.53;;
11699;SDS011;5906;51.660;6.674;2022-12-18T15:59:52;22.87;;;14.23;;
11699;SDS011;5906;51.660;6.674;2022-12-18T16:02:21;21.33;;;14.20;;
11699;SDS011;5906;51.660;6.674;2022-12-18T16:04:52;26.80;;;13.77;;
11699;SDS011;5906;51.660;6.674;2022-12-18T16:07:20;24.07;;;15.90;;
11699;SDS011;5906;51.660;6.674;2022-12-18T16:09:51;22.07;;;14.50;;
11699;SDS011;5906;51.660;6.674;2022-12-18T16:12:19;24.40;;;14.73;;
11699;SDS011;5906;51.660;6.674;2022-12-18T16:14:48;19.70;;;13.30;;
11699;SDS011;5906;51.660;6.674;2022-12-18T16:17:15;27.33;;;15.10;;
11699;SDS011;5906;51.660;6.674;2022-12-18T16:19:42;22.13;;;15.63;;
11699;SDS011;5906;51.660;6.674;2022-12-18T16:22:15;22.97;;;14.07;;
11699;SDS011;5906;51.660;6.674;2022-12-18T16:24:48;22.60;;;14.80;;
11699;SDS011;5906;51.660;6.674;2022-12-18T16:27:16;24.20;;;14.33;;
11699;SDS011;5906;51.660;6.674;2022-12-18T16:29:42;21.83;;;13.80;;
11699;SDS011;5906;51.660;6.674;2022-12-18T16:32:15;26.67;;;14.43;;
11699;SDS011;5906;51.660;6.674;2022-12-18T16:34:43;26.10;;;15.30;;
11699;SDS011;5906;51.660;6.674;2022-12-18T16:37:12;28.23;;;17.03;;
11699;SDS011;5906;51.660;6.674;2022-12-18T16:39:40;25.67;;;14.50;;
11699;SDS011;5906;51.660;6.674;2022-12-18T16:42:11;22.50;;;14.57;;
11699;SDS011;5906;51.660;6.674;2022-12-18T16:44:42;24.53;;;15.70;;
11699;SDS011;5906;51.660;6.674;2022-12-18T16:47:09;27.33;;;16.80;;
11699;SDS011;5906;51.660;6.674;2022-12-18T16:49:40;27.37;;;16.83;;
11699;SDS011;5906;51.660;6.674;2022-12-18T16:52:07;33.07;;;16.27;;
11699;SDS011;5906;51.660;6.674;2022-12-18T16:54:34;31.47;;;17.10;;
11699;SDS011;5906;51.660;6.674;2022-12-18T16:57:02;29.93;;;17.03;;
11699;SDS011;5906;51.660;6.674;2022-12-18T16:59:30;29.60;;;16.80;;
11699;SDS011;5906;51.660;6.674;2022-12-18T17:01:57;28.60;;;15.60;;
11699;SDS011;5906;51.660;6.674;2022-12-18T17:04:24;24.93;;;15.60;;
11699;SDS011;5906;51.660;6.674;2022-12-18T17:06:50;26.30;;;17.93;;
11699;SDS011;5906;51.660;6.674;2022-12-18T17:09:19;28.17;;;17.90;;
11699;SDS011;5906;51.660;6.674;2022-12-18T17:11:50;30.27;;;18.57;;
11699;SDS011;5906;51.660;6.674;2022-12-18T17:14:19;35.33;;;17.80;;
11699;SDS011;5906;51.660;6.674;2022-12-18T17:16:48;31.50;;;17.37;;
11699;SDS011;5906;51.660;6.674;2022-12-18T17:19:35;28.30;;;17.80;;
11699;SDS011;5906;51.660;6.674;2022-12-18T17:22:01;36.87;;;19.90;;
11699;SDS011;5906;51.660;6.674;2022-12-18T17:24:29;30.80;;;18.03;;
11699;SDS011;5906;51.660;6.674;2022-12-18T17:27:00;34.03;;;16.70;;
11699;SDS011;5906;51.660;6.674;2022-12-18T17:29:27;34.47;;;18.60;;
11699;SDS011;5906;51.660;6.674;2022-12-18T17:31:54;30.50;;;17.53;;
11699;SDS011;5906;51.660;6.674;2022-12-18T17:34:22;34.93;;;18.67;;
11699;SDS011;5906;51.660;6.674;2022-12-18T17:36:49;32.70;;;17.77;;
11699;SDS011;5906;51.660;6.674;2022-12-18T17:39:17;27.07;;;17.67;;
11699;SDS011;5906;51.660;6.674;2022-12-18T17:41:46;31.80;;;17.90;;
11699;SDS011;5906;51.660;6.674;2022-12-18T17:44:14;27.67;;;16.23;;
11699;SDS011;5906;51.660;6.674;2022-12-18T17:46:42;29.27;;;16.13;;
11699;SDS011;5906;51.660;6.674;2022-12-18T17:49:09;25.97;;;15.73;;
11699;SDS011;5906;51.660;6.674;2022-12-18T17:51:36;29.83;;;16.10;;
11699;SDS011;5906;51.660;6.674;2022-12-18T17:54:03;30.90;;;17.50;;
11699;SDS011;5906;51.660;6.674;2022-12-18T17:56:30;32.33;;;18.30;;
11699;SDS011;5906;51.660;6.674;2022-12-18T17:58:58;33.30;;;16.97;;
11699;SDS011;5906;51.660;6.674;2022-12-18T18:01:25;30.60;;;16.73;;
11699;SDS011;5906;51.660;6.674;2022-12-18T18:03:52;26.70;;;17.67;;
11699;SDS011;5906;51.660;6.674;2022-12-18T18:06:21;34.80;;;19.70;;
11699;SDS011;5906;51.660;6.674;2022-12-18T18:08:49;29.03;;;17.23;;
11699;SDS011;5906;51.660;6.674;2022-12-18T18:11:16;32.40;;;19.07;;
11699;SDS011;5906;51.660;6.674;2022-12-18T18:14:04;31.30;;;19.40;;
11699;SDS011;5906;51.660;6.674;2022-12-18T18:16:35;39.73;;;18.63;;
11699;SDS011;5906;51.660;6.674;2022-12-18T18:19:07;35.87;;;19.63;;
11699;SDS011;5906;51.660;6.674;2022-12-18T18:21:39;35.80;;;17.73;;
11699;SDS011;5906;51.660;6.674;2022-12-18T18:24:08;38.33;;;20.37;;
11699;SDS011;5906;51.660;6.674;2022-12-18T18:26:36;32.57;;;17.20;;
11699;SDS011;5906;51.660;6.674;2022-12-18T18:29:06;33.70;;;16.97;;
11699;SDS011;5906;51.660;6.674;2022-12-18T18:31:35;30.70;;;17.23;;
11699;SDS011;5906;51.660;6.674;2022-12-18T18:34:06;32.57;;;18.33;;
11699;SDS011;5906;51.660;6.674;2022-12-18T18:36:34;37.57;;;20.20;;
11699;SDS011;5906;51.660;6.674;2022-12-18T18:39:00;29.97;;;16.73;;
11699;SDS011;5906;51.660;6.674;2022-12-18T18:41:27;33.80;;;19.47;;
11699;SDS011;5906;51.660;6.674;2022-12-18T18:43:56;35.87;;;18.60;;